Time,TemperatureF,DewpointF,PressureIn,WindDirection,WindDirectionDegrees,WindSpeedMPH,WindSpeedGustMPH,Humidity,HourlyPrecipIn,Conditions,Clouds,dailyrainin,SoftwareType,DateUTC
2013-06-11 00:00:00,54.2,54.2,19.99,WSW,242,1.0,14.0,100,0.00,,---,0.00,VWS V13.00,2013-06-11 04:00:00,
2013-06-11 00:30:00,53.9,53.9,20.00,South,173,3.0,7.0,100,0.00,,---,0.00,VWS V13.00,2013-06-11 04:30:00,
2013-06-11 01:00:00,53.2,53.2,19.99,SE,145,2.0,17.0,100,0.00,,---,0.00,VWS V13.00,2013-06-11 05:00:00,
2013-06-11 01:30:00,52.9,52.9,20.00,WSW,251,1.0,16.0,100,0.00,,---,0.00,VWS V13.00,2013-06-11 05:30:00,
2013-06-11 02:00:00,52.8,52.8,20.00,South,181,2.0,13.0,100,0.00,,---,0.00,VWS V13.00,2013-06-11 06:00:00,
2013-06-11 02:30:00,52.7,52.7,19.99,West,267,2.0,8.0,100,0.00,,---,0.00,VWS V13.00,2013-06-11 06:30:00,
2013-06-11 03:00:00,52.5,52.5,19.99,SE,132,6.0,16.0,100,0.00,,---,0.00,VWS V13.00,2013-06-11 07:00:00,
2013-06-11 03:30:00,52.3,52.3,19.99,SE,134,2.0,11.0,100,0.00,,---,0.00,VWS V13.00,2013-06-11 07:30:00,
2013-06-11 04:00:00,52.2,52.2,20.00,SE,136,0.0,13.0,100,0.00,,---,0.00,VWS V13.00,2013-06-11 08:00:00,
2013-06-11 05:30:00,51.9,51.9,19.99,East,96,2.0,4.0,100,0.00,,---,0.00,VWS V13.00,2013-06-11 09:30:00,
2013-06-11 06:00:00,51.7,51.7,19.99,South,189,1.0,4.0,100,0.00,,---,0.00,VWS V13.00,2013-06-11 10:00:00,
2013-06-11 06:30:00,51.3,51.3,19.99,WNW,292,2.0,7.0,100,0.00,,---,0.00,VWS V13.00,2013-06-11 10:30:00,
2013-06-11 07:00:00,51.2,51.2,20.00,NNE,15,3.0,5.0,100,0.00,,---,0.00,VWS V13.00,2013-06-11 11:00:00,
2013-06-11 07:30:00,50.6,50.6,19.99,North,0,2.0,5.0,100,0.00,,---,0.00,VWS V13.00,2013-06-11 11:30:00,
2013-06-11 08:00:00,50.4,50.4,20.00,ESE,120,2.0,9.0,100,0.00,,---,0.00,VWS V13.00,2013-06-11 12:00:00,
2013-06-11 08:30:00,50.4,50.4,20.00,West,270,2.0,11.0,100,0.00,,---,0.00,VWS V13.00,2013-06-11 12:30:00,
2013-06-11 09:00:00,50.6,50.6,19.99,SE,133,4.0,11.0,100,0.00,,---,0.00,VWS V13.00,2013-06-11 13:00:00,
2013-06-11 09:30:00,50.5,50.5,19.99,WNW,287,2.0,10.0,100,0.00,,---,0.00,VWS V13.00,2013-06-11 13:30:00,
2013-06-11 10:00:00,50.5,50.5,19.99,SE,142,1.0,7.0,100,0.00,,---,0.00,VWS V13.00,2013-06-11 14:00:00,
2013-06-11 10:30:00,51.1,51.1,20.00,SSE,152,1.0,8.0,100,0.00,,---,0.00,VWS V13.00,2013-06-11 14:30:00,
2013-06-11 11:00:00,51.3,51.3,19.99,East,95,2.0,13.0,100,0.00,,---,0.00,VWS V13.00,2013-06-11 15:00:00,
2013-06-11 11:30:00,51.6,51.6,19.99,SE,124,2.0,9.0,100,0.00,,---,0.00,VWS V13.00,2013-06-11 15:30:00,
2013-06-11 12:00:00,51.8,51.8,19.99,SE,139,0.0,5.0,100,0.00,,---,0.00,VWS V13.00,2013-06-11 16:00:00,
2013-06-11 12:30:00,52.2,52.2,19.99,SE,143,1.0,6.0,100,0.00,,---,0.00,VWS V13.00,2013-06-11 16:30:00,
2013-06-11 13:00:00,52.7,52.7,19.99,SSE,148,1.0,8.0,100,0.00,,---,0.00,VWS V13.00,2013-06-11 17:00:00,
2013-06-11 13:30:00,52.9,52.9,20.00,SE,143,1.0,8.0,100,0.00,,---,0.00,VWS V13.00,2013-06-11 17:30:00,
2013-06-11 14:00:00,52.2,52.2,19.99,WNW,282,1.0,5.0,100,0.00,,---,0.00,VWS V13.00,2013-06-11 18:00:00,
2013-06-11 14:30:00,52.6,52.6,20.00,SE,129,6.0,10.0,100,0.00,,---,0.00,VWS V13.00,2013-06-11 18:30:00,
2013-06-11 15:00:00,52.9,52.9,19.99,West,259,0.0,7.0,100,0.00,,---,0.00,VWS V13.00,2013-06-11 19:00:00,
2013-06-11 15:30:00,53.1,53.1,19.99,SE,131,1.0,9.0,100,0.00,,---,0.00,VWS V13.00,2013-06-11 19:30:00,
2013-06-11 16:00:00,52.9,52.9,19.99,East,97,0.0,9.0,100,0.00,,---,0.00,VWS V13.00,2013-06-11 20:00:00,
2013-06-11 16:30:00,52.7,52.7,19.99,East,91,1.0,3.0,100,0.00,,---,0.00,VWS V13.00,2013-06-11 20:30:00,
2013-06-11 17:00:00,52.4,52.4,20.00,SE,128,2.0,8.0,100,0.00,,---,0.00,VWS V13.00,2013-06-11 21:00:00,
2013-06-11 17:30:00,52.6,52.6,19.99,SE,145,1.0,9.0,100,0.00,,---,0.00,VWS V13.00,2013-06-11 21:30:00,
2013-06-11 18:00:00,52.3,52.3,19.99,ESE,122,0.0,10.0,100,0.00,,---,0.00,VWS V13.00,2013-06-11 22:00:00,
2013-06-11 18:30:00,52.6,52.6,19.99,ESE,122,1.0,5.0,100,0.00,,---,0.00,VWS V13.00,2013-06-11 22:30:00,
2013-06-11 19:00:00,52.3,52.3,19.99,SE,130,0.0,5.0,100,0.00,,---,0.00,VWS V13.00,2013-06-11 23:00:00,
2013-06-11 19:30:00,52.5,52.5,19.99,SE,131,0.0,3.0,100,0.00,,---,0.00,VWS V13.00,2013-06-11 23:30:00,
2013-06-11 20:00:00,52.5,52.5,20.00,ESE,120,0.0,3.0,100,0.00,,---,0.00,VWS V13.00,2013-06-12 00:00:00,
2013-06-11 20:30:00,52.0,52.0,19.99,ESE,120,0.0,2.0,100,0.00,,---,0.00,VWS V13.00,2013-06-12 00:30:00,
2013-06-11 21:00:00,51.9,51.9,19.99,ESE,116,0.0,3.0,100,0.00,,---,0.00,VWS V13.00,2013-06-12 01:00:00,
2013-06-11 21:30:00,52.0,52.0,19.99,ESE,118,1.0,3.0,100,0.00,,---,0.00,VWS V13.00,2013-06-12 01:30:00,
2013-06-11 22:00:00,51.9,51.9,19.99,SE,130,0.0,5.0,100,0.00,,---,0.00,VWS V13.00,2013-06-12 02:00:00,
2013-06-11 22:30:00,51.8,51.8,19.99,SE,132,2.0,4.0,100,0.00,,---,0.00,VWS V13.00,2013-06-12 02:30:00,
2013-06-11 23:00:00,51.9,51.9,19.99,SE,132,0.0,3.0,100,0.00,,---,0.00,VWS V13.00,2013-06-12 03:00:00,
2013-06-11 23:30:00,53.2,53.2,20.00,West,275,2.0,9.0,100,0.00,,---,0.00,VWS V13.00,2013-06-12 03:30:00,